Home > Products > Valid Products > TAF

000
FTUS44 KMAF 311100
TAFMAF
TAF
KMAF 311121Z 3112/0112 06009KT P6SM FEW250
     FM010000 09005KT P6SM SCT200=



000
FTUS44 KMAF 310600 AAA
TAFMAF
TAF AMD
KMAF 310647Z 3107/0106 04011KT P6SM FEW200
     FM311200 06011KT P6SM SKC
     FM010000 09008KT P6SM FEW200=



000
FTUS44 KMAF 310500
TAFMAF
TAF
KMAF 310521Z 3106/0106 05008KT P6SM SCT200
     FM311200 08009KT P6SM BKN250
     FM010000 09006KT P6SM OVC200=



000
FTUS44 KMAF 302300
TAFMAF
TAF
KMAF 302320Z 3100/3124 36009KT P6SM SKC
     FM310200 04014KT P6SM FEW200
     FM311600 08012KT P6SM FEW200=



000
FTUS44 KMAF 301700
TAFMAF
TAF
KMAF 301724Z 3018/3118 32009KT P6SM SKC
     FM310200 05014KT P6SM FEW200
     FM311600 08012KT P6SM FEW200=



000
FTUS44 KMAF 301600 AAA
TAFMAF
TAF AMD
KMAF 301619Z 3016/3112 22007KT P6SM SCT250
     FM310000 03011KT P6SM SKC
      TEMPO 3104/3108 BKN025=



000
FTUS44 KMAF 301100
TAFMAF
TAF
KMAF 301120Z 3012/3112 22007KT P6SM SCT250
      TEMPO 3013/3017 3SM BR OVC002
     FM310000 03011KT P6SM SKC
      TEMPO 3104/3108 BKN025=



000
FTUS44 KMAF 300600 AAA
TAFMAF
TAF AMD
KMAF 300622Z 3006/3106 18004KT P6SM SKC
     FM301200 19005KT P6SM SKC
     FM301400 20006KT 3SM BR OVC002
     FM301700 31008KT P6SM SKC
     FM310000 03011KT P6SM SKC=



000
FTUS44 KMAF 300500
TAFMAF
TAF
KMAF 300520Z 3006/3106 17004KT P6SM SKC
     FM301200 19005KT P6SM SKC
     FM301400 20006KT 3SM BR OVC002
     FM301700 31008KT P6SM SKC
     FM310000 03011KT P6SM SKC=



000
FTUS44 KMAF 292300
TAFMAF
TAF
KMAF 292325Z 3000/3024 14007KT P6SM SKC
     FM301100 17008KT 5SM BR BKN007
      TEMPO 3012/3016 1SM BR BKN003
     FM301600 19008KT P6SM SKC=



000
FTUS44 KMAF 291700
TAFMAF
TAF
KMAF 291722Z 2918/3018 12010KT P6SM SCT050
     FM301300 12008KT 5SM BR BKN012=



000
FTUS44 KMAF 291100
TAFMAF
TAF
KMAF 291120Z 2912/3012 05008KT P6SM SKC
     FM291700 12008KT P6SM SCT040=



000
FTUS44 KMAF 290500
TAFMAF
TAF
KMAF 290520Z 2906/3006 05008KT P6SM SKC
     FM291700 12008KT P6SM SCT040=



000
FTUS44 KMAF 282300
TAFMAF
TAF
KMAF 282328Z 2900/2924 04010KT P6SM SKC
     FM291700 12008KT P6SM SCT040=



000
FTUS44 KMAF 281700
TAFMAF
TAF
KMAF 281720Z 2818/2918 03010KT P6SM SKC=



    US Dept of Commerce
    National Oceanic and Atmospheric Administration
    National Weather Service
    1325 East West Highway
    Silver Spring, MD 20910
    Page Author: NWS Internet Services Team
Disclaimer
Information Quality
Credits
Glossary
Privacy Policy
Freedom of Information Act (FOIA)
About Us
Career Opportunities